sensor_id;sensor_type;location;lat;lon;timestamp;temperature;humidity
29211;DHT22;16250;49.932;10.980;2022-10-16T00:00:30;14.60;99.90
29211;DHT22;16250;49.932;10.980;2022-10-16T00:02:55;14.70;99.90
29211;DHT22;16250;49.932;10.980;2022-10-16T00:05:21;14.70;99.90
29211;DHT22;16250;49.932;10.980;2022-10-16T00:07:46;14.70;99.90
29211;DHT22;16250;49.932;10.980;2022-10-16T00:10:12;14.70;99.90
29211;DHT22;16250;49.932;10.980;2022-10-16T00:12:38;14.60;99.90
29211;DHT22;16250;49.932;10.980;2022-10-16T00:15:04;14.70;99.90
29211;DHT22;16250;49.932;10.980;2022-10-16T00:17:30;14.70;99.90
29211;DHT22;16250;49.932;10.980;2022-10-16T00:19:55;14.70;99.90
29211;DHT22;16250;49.932;10.980;2022-10-16T00:22:22;14.70;99.90
29211;DHT22;16250;49.932;10.980;2022-10-16T00:24:47;14.70;99.90
29211;DHT22;16250;49.932;10.980;2022-10-16T00:27:13;14.70;99.90
29211;DHT22;16250;49.932;10.980;2022-10-16T00:29:38;14.70;99.90
29211;DHT22;16250;49.932;10.980;2022-10-16T00:32:04;14.70;99.90
29211;DHT22;16250;49.932;10.980;2022-10-16T00:34:29;14.80;99.90
29211;DHT22;16250;49.932;10.980;2022-10-16T00:36:55;14.70;99.90
29211;DHT22;16250;49.932;10.980;2022-10-16T00:39:21;14.60;99.90
29211;DHT22;16250;49.932;10.980;2022-10-16T00:41:47;14.70;99.90
29211;DHT22;16250;49.932;10.980;2022-10-16T00:47:24;14.70;99.90
29211;DHT22;16250;49.932;10.980;2022-10-16T00:49:55;14.60;99.90
29211;DHT22;16250;49.932;10.980;2022-10-16T00:52:21;14.60;99.90
29211;DHT22;16250;49.932;10.980;2022-10-16T00:54:47;14.60;99.90
29211;DHT22;16250;49.932;10.980;2022-10-16T00:57:14;14.60;99.90
29211;DHT22;16250;49.932;10.980;2022-10-16T00:59:41;14.50;99.90
29211;DHT22;16250;49.932;10.980;2022-10-16T01:02:10;14.60;99.90
29211;DHT22;16250;49.932;10.980;2022-10-16T01:04:42;14.50;99.90
29211;DHT22;16250;49.932;10.980;2022-10-16T01:07:17;14.50;99.90
29211;DHT22;16250;49.932;10.980;2022-10-16T01:12:41;14.50;99.90
29211;DHT22;16250;49.932;10.980;2022-10-16T01:15:18;14.50;99.90
29211;DHT22;16250;49.932;10.980;2022-10-16T01:20:36;14.60;99.90
29211;DHT22;16250;49.932;10.980;2022-10-16T01:28:24;14.60;99.90
29211;DHT22;16250;49.932;10.980;2022-10-16T01:30:52;14.60;99.90
29211;DHT22;16250;49.932;10.980;2022-10-16T01:33:26;14.70;99.90
29211;DHT22;16250;49.932;10.980;2022-10-16T01:35:59;14.70;99.90
29211;DHT22;16250;49.932;10.980;2022-10-16T01:38:33;14.70;99.90
29211;DHT22;16250;49.932;10.980;2022-10-16T01:41:08;14.70;99.90
29211;DHT22;16250;49.932;10.980;2022-10-16T01:43:45;14.70;99.90
29211;DHT22;16250;49.932;10.980;2022-10-16T01:46:14;14.70;99.90
29211;DHT22;16250;49.932;10.980;2022-10-16T01:48:42;14.70;99.90
29211;DHT22;16250;49.932;10.980;2022-10-16T01:51:11;14.70;99.90
29211;DHT22;16250;49.932;10.980;2022-10-16T01:53:38;14.70;99.90
29211;DHT22;16250;49.932;10.980;2022-10-16T01:56:08;14.80;99.90
29211;DHT22;16250;49.932;10.980;2022-10-16T01:58:38;14.70;99.90
29211;DHT22;16250;49.932;10.980;2022-10-16T02:01:07;14.80;99.90
29211;DHT22;16250;49.932;10.980;2022-10-16T02:03:36;14.80;99.90
29211;DHT22;16250;49.932;10.980;2022-10-16T02:06:02;14.80;99.90
29211;DHT22;16250;49.932;10.980;2022-10-16T02:08:29;14.80;99.90
29211;DHT22;16250;49.932;10.980;2022-10-16T02:10:57;14.80;99.90
29211;DHT22;16250;49.932;10.980;2022-10-16T02:13:31;14.80;99.90
29211;DHT22;16250;49.932;10.980;2022-10-16T02:15:58;14.90;99.90
29211;DHT22;16250;49.932;10.980;2022-10-16T02:18:24;14.80;99.90
29211;DHT22;16250;49.932;10.980;2022-10-16T02:21:01;14.90;99.90
29211;DHT22;16250;49.932;10.980;2022-10-16T02:23:54;14.90;99.90
29211;DHT22;16250;49.932;10.980;2022-10-16T02:26:29;14.90;99.90
29211;DHT22;16250;49.932;10.980;2022-10-16T02:29:00;14.80;99.90
29211;DHT22;16250;49.932;10.980;2022-10-16T02:31:33;14.90;99.90
29211;DHT22;16250;49.932;10.980;2022-10-16T02:34:00;15.00;99.90
29211;DHT22;16250;49.932;10.980;2022-10-16T02:36:28;15.00;99.90
29211;DHT22;16250;49.932;10.980;2022-10-16T02:38:55;14.90;99.90
29211;DHT22;16250;49.932;10.980;2022-10-16T02:41:21;14.90;99.90
29211;DHT22;16250;49.932;10.980;2022-10-16T02:43:48;14.90;99.90
29211;DHT22;16250;49.932;10.980;2022-10-16T02:46:14;14.90;99.90
29211;DHT22;16250;49.932;10.980;2022-10-16T02:48:40;14.90;99.90
29211;DHT22;16250;49.932;10.980;2022-10-16T02:51:06;15.20;99.90
29211;DHT22;16250;49.932;10.980;2022-10-16T02:53:31;14.90;99.90
29211;DHT22;16250;49.932;10.980;2022-10-16T02:55:57;14.90;99.90
29211;DHT22;16250;49.932;10.980;2022-10-16T02:58:22;14.90;99.90
29211;DHT22;16250;49.932;10.980;2022-10-16T03:00:48;14.90;99.90
29211;DHT22;16250;49.932;10.980;2022-10-16T03:03:13;14.90;99.90
29211;DHT22;16250;49.932;10.980;2022-10-16T03:05:39;14.90;99.90
29211;DHT22;16250;49.932;10.980;2022-10-16T03:08:05;14.90;99.90
29211;DHT22;16250;49.932;10.980;2022-10-16T03:10:30;14.90;99.90
29211;DHT22;16250;49.932;10.980;2022-10-16T03:12:56;15.10;99.90
29211;DHT22;16250;49.932;10.980;2022-10-16T03:15:21;14.90;99.90
29211;DHT22;16250;49.932;10.980;2022-10-16T03:17:47;14.90;99.90
29211;DHT22;16250;49.932;10.980;2022-10-16T03:20:13;14.80;99.90
29211;DHT22;16250;49.932;10.980;2022-10-16T03:22:38;14.90;99.90
29211;DHT22;16250;49.932;10.980;2022-10-16T03:25:04;14.90;99.90
29211;DHT22;16250;49.932;10.980;2022-10-16T03:27:30;14.90;99.90
29211;DHT22;16250;49.932;10.980;2022-10-16T03:29:55;14.90;99.90
29211;DHT22;16250;49.932;10.980;2022-10-16T03:32:21;14.90;99.90
29211;DHT22;16250;49.932;10.980;2022-10-16T03:34:47;14.90;99.90
29211;DHT22;16250;49.932;10.980;2022-10-16T03:37:12;14.90;99.90
29211;DHT22;16250;49.932;10.980;2022-10-16T03:39:38;14.90;99.90
29211;DHT22;16250;49.932;10.980;2022-10-16T03:42:03;14.90;99.90
29211;DHT22;16250;49.932;10.980;2022-10-16T03:44:29;14.90;99.90
29211;DHT22;16250;49.932;10.980;2022-10-16T03:46:54;14.60;99.90
29211;DHT22;16250;49.932;10.980;2022-10-16T03:49:20;14.90;99.90
29211;DHT22;16250;49.932;10.980;2022-10-16T03:51:45;14.90;99.90
29211;DHT22;16250;49.932;10.980;2022-10-16T03:54:11;15.00;99.90
29211;DHT22;16250;49.932;10.980;2022-10-16T03:56:37;15.00;99.90
29211;DHT22;16250;49.932;10.980;2022-10-16T03:59:03;15.20;99.90
29211;DHT22;16250;49.932;10.980;2022-10-16T04:01:28;15.00;99.90
29211;DHT22;16250;49.932;10.980;2022-10-16T04:03:54;15.00;99.90
29211;DHT22;16250;49.932;10.980;2022-10-16T04:06:19;15.00;99.90
29211;DHT22;16250;49.932;10.980;2022-10-16T04:08:45;15.00;99.90
29211;DHT22;16250;49.932;10.980;2022-10-16T04:11:11;15.00;99.90
29211;DHT22;16250;49.932;10.980;2022-10-16T04:13:36;15.00;99.90
29211;DHT22;16250;49.932;10.980;2022-10-16T04:16:02;15.00;99.90
29211;DHT22;16250;49.932;10.980;2022-10-16T04:18:28;15.00;99.90
29211;DHT22;16250;49.932;10.980;2022-10-16T04:20:54;15.00;99.90
29211;DHT22;16250;49.932;10.980;2022-10-16T04:23:20;15.00;99.90
29211;DHT22;16250;49.932;10.980;2022-10-16T04:25:45;15.00;99.90
29211;DHT22;16250;49.932;10.980;2022-10-16T04:28:11;15.00;99.90
29211;DHT22;16250;49.932;10.980;2022-10-16T04:30:38;15.00;99.90
29211;DHT22;16250;49.932;10.980;2022-10-16T04:33:04;15.00;99.90
29211;DHT22;16250;49.932;10.980;2022-10-16T04:35:29;15.00;99.90
29211;DHT22;16250;49.932;10.980;2022-10-16T04:37:57;15.00;99.90
29211;DHT22;16250;49.932;10.980;2022-10-16T04:40:23;15.00;99.90
29211;DHT22;16250;49.932;10.980;2022-10-16T04:42:48;15.00;99.90
29211;DHT22;16250;49.932;10.980;2022-10-16T04:45:14;15.00;99.90
29211;DHT22;16250;49.932;10.980;2022-10-16T04:47:40;15.00;99.90
29211;DHT22;16250;49.932;10.980;2022-10-16T04:50:06;14.90;99.90
29211;DHT22;16250;49.932;10.980;2022-10-16T04:52:32;14.90;99.90
29211;DHT22;16250;49.932;10.980;2022-10-16T04:54:58;14.90;99.90
29211;DHT22;16250;49.932;10.980;2022-10-16T04:57:27;14.90;99.90
29211;DHT22;16250;49.932;10.980;2022-10-16T04:59:52;15.00;99.90
29211;DHT22;16250;49.932;10.980;2022-10-16T05:02:18;15.00;99.90
29211;DHT22;16250;49.932;10.980;2022-10-16T05:04:43;15.00;99.90
29211;DHT22;16250;49.932;10.980;2022-10-16T05:07:09;15.20;99.90
29211;DHT22;16250;49.932;10.980;2022-10-16T05:09:35;15.00;99.90
29211;DHT22;16250;49.932;10.980;2022-10-16T05:12:00;15.00;99.90
29211;DHT22;16250;49.932;10.980;2022-10-16T05:14:26;14.90;99.90
29211;DHT22;16250;49.932;10.980;2022-10-16T05:16:51;14.90;99.90
29211;DHT22;16250;49.932;10.980;2022-10-16T05:19:17;14.90;99.90
29211;DHT22;16250;49.932;10.980;2022-10-16T05:21:43;14.90;99.90
29211;DHT22;16250;49.932;10.980;2022-10-16T05:24:08;14.90;99.90
29211;DHT22;16250;49.932;10.980;2022-10-16T05:26:34;14.80;99.90
29211;DHT22;16250;49.932;10.980;2022-10-16T05:29:00;14.90;99.90
29211;DHT22;16250;49.932;10.980;2022-10-16T05:31:26;14.90;99.90
29211;DHT22;16250;49.932;10.980;2022-10-16T05:33:51;14.80;99.90
29211;DHT22;16250;49.932;10.980;2022-10-16T05:36:17;14.90;99.90
29211;DHT22;16250;49.932;10.980;2022-10-16T05:38:43;14.80;99.90
29211;DHT22;16250;49.932;10.980;2022-10-16T05:41:09;14.80;99.90
29211;DHT22;16250;49.932;10.980;2022-10-16T05:43:35;14.80;99.90
29211;DHT22;16250;49.932;10.980;2022-10-16T05:46:03;14.80;99.90
29211;DHT22;16250;49.932;10.980;2022-10-16T05:48:29;14.80;99.90
29211;DHT22;16250;49.932;10.980;2022-10-16T05:51:04;14.80;99.90
29211;DHT22;16250;49.932;10.980;2022-10-16T05:53:32;14.90;99.90
29211;DHT22;16250;49.932;10.980;2022-10-16T05:55:58;14.90;99.90
29211;DHT22;16250;49.932;10.980;2022-10-16T05:58:24;14.90;99.90
29211;DHT22;16250;49.932;10.980;2022-10-16T06:01:01;14.90;99.90
29211;DHT22;16250;49.932;10.980;2022-10-16T06:03:27;14.80;99.90
29211;DHT22;16250;49.932;10.980;2022-10-16T06:05:53;14.90;99.90
29211;DHT22;16250;49.932;10.980;2022-10-16T06:08:20;14.90;99.90
29211;DHT22;16250;49.932;10.980;2022-10-16T06:10:46;14.90;99.90
29211;DHT22;16250;49.932;10.980;2022-10-16T06:13:13;15.00;99.90
29211;DHT22;16250;49.932;10.980;2022-10-16T06:15:40;15.00;99.90
29211;DHT22;16250;49.932;10.980;2022-10-16T06:18:10;15.00;99.90
29211;DHT22;16250;49.932;10.980;2022-10-16T06:20:36;15.10;99.90
29211;DHT22;16250;49.932;10.980;2022-10-16T06:23:03;15.00;99.90
29211;DHT22;16250;49.932;10.980;2022-10-16T06:25:30;15.00;99.90
29211;DHT22;16250;49.932;10.980;2022-10-16T06:27:55;15.00;99.90
29211;DHT22;16250;49.932;10.980;2022-10-16T06:30:21;15.10;99.90
29211;DHT22;16250;49.932;10.980;2022-10-16T06:32:46;15.10;99.90
29211;DHT22;16250;49.932;10.980;2022-10-16T06:35:12;15.10;99.90
29211;DHT22;16250;49.932;10.980;2022-10-16T06:37:37;15.10;99.90
29211;DHT22;16250;49.932;10.980;2022-10-16T06:40:03;15.10;99.90
29211;DHT22;16250;49.932;10.980;2022-10-16T06:42:29;15.10;99.90
29211;DHT22;16250;49.932;10.980;2022-10-16T06:44:55;15.20;99.90
29211;DHT22;16250;49.932;10.980;2022-10-16T06:47:21;15.20;99.90
29211;DHT22;16250;49.932;10.980;2022-10-16T06:49:46;15.20;99.90
29211;DHT22;16250;49.932;10.980;2022-10-16T06:52:12;15.30;99.90
29211;DHT22;16250;49.932;10.980;2022-10-16T06:54:37;15.50;99.90
29211;DHT22;16250;49.932;10.980;2022-10-16T06:57:03;15.30;99.90
29211;DHT22;16250;49.932;10.980;2022-10-16T06:59:28;15.30;99.90
29211;DHT22;16250;49.932;10.980;2022-10-16T07:01:54;15.30;99.90
29211;DHT22;16250;49.932;10.980;2022-10-16T07:04:19;15.30;99.90
29211;DHT22;16250;49.932;10.980;2022-10-16T07:06:45;15.30;99.90
29211;DHT22;16250;49.932;10.980;2022-10-16T07:09:11;15.40;99.90
29211;DHT22;16250;49.932;10.980;2022-10-16T07:11:38;15.40;99.90
29211;DHT22;16250;49.932;10.980;2022-10-16T07:14:04;15.40;99.90
29211;DHT22;16250;49.932;10.980;2022-10-16T07:16:32;15.40;99.90
29211;DHT22;16250;49.932;10.980;2022-10-16T07:19:00;15.40;99.90
29211;DHT22;16250;49.932;10.980;2022-10-16T07:21:29;15.50;99.90
29211;DHT22;16250;49.932;10.980;2022-10-16T07:23:57;15.50;99.90
29211;DHT22;16250;49.932;10.980;2022-10-16T07:26:24;15.50;99.90
29211;DHT22;16250;49.932;10.980;2022-10-16T07:28:50;15.50;99.90
29211;DHT22;16250;49.932;10.980;2022-10-16T07:31:17;15.50;99.90
29211;DHT22;16250;49.932;10.980;2022-10-16T07:33:43;15.50;99.90
29211;DHT22;16250;49.932;10.980;2022-10-16T07:36:11;15.60;99.90
29211;DHT22;16250;49.932;10.980;2022-10-16T07:38:37;15.60;99.90
29211;DHT22;16250;49.932;10.980;2022-10-16T07:41:09;15.60;99.90
29211;DHT22;16250;49.932;10.980;2022-10-16T07:43:35;15.60;99.90
29211;DHT22;16250;49.932;10.980;2022-10-16T07:46:00;15.70;99.90
29211;DHT22;16250;49.932;10.980;2022-10-16T07:48:28;15.70;99.90
29211;DHT22;16250;49.932;10.980;2022-10-16T07:51:01;15.80;99.90
29211;DHT22;16250;49.932;10.980;2022-10-16T07:53:27;15.80;99.90
29211;DHT22;16250;49.932;10.980;2022-10-16T07:55:58;15.90;99.90
29211;DHT22;16250;49.932;10.980;2022-10-16T07:58:24;16.00;99.90
29211;DHT22;16250;49.932;10.980;2022-10-16T08:00:49;16.00;99.90
29211;DHT22;16250;49.932;10.980;2022-10-16T08:03:15;16.10;99.90
29211;DHT22;16250;49.932;10.980;2022-10-16T08:05:40;16.10;99.90
29211;DHT22;16250;49.932;10.980;2022-10-16T08:08:06;16.20;99.90
29211;DHT22;16250;49.932;10.980;2022-10-16T08:10:31;16.20;99.90
29211;DHT22;16250;49.932;10.980;2022-10-16T08:12:57;16.30;99.90
29211;DHT22;16250;49.932;10.980;2022-10-16T08:15:23;16.50;99.90
29211;DHT22;16250;49.932;10.980;2022-10-16T08:18:00;16.50;99.90
29211;DHT22;16250;49.932;10.980;2022-10-16T08:20:27;16.50;99.90
29211;DHT22;16250;49.932;10.980;2022-10-16T08:22:53;16.60;99.90
29211;DHT22;16250;49.932;10.980;2022-10-16T08:25:20;16.60;99.90
29211;DHT22;16250;49.932;10.980;2022-10-16T08:27:46;16.70;99.90
29211;DHT22;16250;49.932;10.980;2022-10-16T08:30:12;16.90;99.90
29211;DHT22;16250;49.932;10.980;2022-10-16T08:32:38;17.10;99.90
29211;DHT22;16250;49.932;10.980;2022-10-16T08:35:04;17.00;99.90
29211;DHT22;16250;49.932;10.980;2022-10-16T08:37:30;17.10;99.90
29211;DHT22;16250;49.932;10.980;2022-10-16T08:39:56;17.00;99.90
29211;DHT22;16250;49.932;10.980;2022-10-16T08:47:41;16.70;99.90
29211;DHT22;16250;49.932;10.980;2022-10-16T08:50:13;16.80;99.90
29211;DHT22;16250;49.932;10.980;2022-10-16T08:52:41;16.70;99.90
29211;DHT22;16250;49.932;10.980;2022-10-16T08:55:30;16.70;99.90
29211;DHT22;16250;49.932;10.980;2022-10-16T08:57:57;16.70;99.90
29211;DHT22;16250;49.932;10.980;2022-10-16T09:00:24;16.70;99.90
29211;DHT22;16250;49.932;10.980;2022-10-16T09:03:04;16.70;99.90
29211;DHT22;16250;49.932;10.980;2022-10-16T09:11:07;16.90;99.90
29211;DHT22;16250;49.932;10.980;2022-10-16T09:16:23;17.10;99.90
29211;DHT22;16250;49.932;10.980;2022-10-16T09:19:01;17.20;99.90
29211;DHT22;16250;49.932;10.980;2022-10-16T09:21:35;17.30;99.90
29211;DHT22;16250;49.932;10.980;2022-10-16T09:24:20;17.20;99.90
29211;DHT22;16250;49.932;10.980;2022-10-16T09:26:46;17.30;99.90
29211;DHT22;16250;49.932;10.980;2022-10-16T09:29:13;17.40;99.90
29211;DHT22;16250;49.932;10.980;2022-10-16T09:31:40;17.30;99.90
29211;DHT22;16250;49.932;10.980;2022-10-16T09:34:29;17.40;99.90
29211;DHT22;16250;49.932;10.980;2022-10-16T09:36:57;17.20;99.90
29211;DHT22;16250;49.932;10.980;2022-10-16T09:39:24;17.10;99.90
29211;DHT22;16250;49.932;10.980;2022-10-16T09:41:50;17.20;99.90
29211;DHT22;16250;49.932;10.980;2022-10-16T09:44:26;17.50;99.90
29211;DHT22;16250;49.932;10.980;2022-10-16T09:47:13;17.30;99.90
29211;DHT22;16250;49.932;10.980;2022-10-16T09:49:54;17.40;99.90
29211;DHT22;16250;49.932;10.980;2022-10-16T09:52:21;17.40;99.90
29211;DHT22;16250;49.932;10.980;2022-10-16T09:55:19;17.40;99.90
29211;DHT22;16250;49.932;10.980;2022-10-16T09:57:51;17.40;99.90
29211;DHT22;16250;49.932;10.980;2022-10-16T10:00:18;17.40;99.90
29211;DHT22;16250;49.932;10.980;2022-10-16T10:02:44;17.30;99.90
29211;DHT22;16250;49.932;10.980;2022-10-16T10:05:25;17.30;99.90
29211;DHT22;16250;49.932;10.980;2022-10-16T10:07:58;17.30;99.90
29211;DHT22;16250;49.932;10.980;2022-10-16T10:10:27;17.40;99.90
29211;DHT22;16250;49.932;10.980;2022-10-16T10:12:54;17.30;99.90
29211;DHT22;16250;49.932;10.980;2022-10-16T10:15:21;17.40;99.90
29211;DHT22;16250;49.932;10.980;2022-10-16T10:17:54;17.40;99.90
29211;DHT22;16250;49.932;10.980;2022-10-16T10:20:34;17.80;99.90
29211;DHT22;16250;49.932;10.980;2022-10-16T10:23:00;17.50;99.90
29211;DHT22;16250;49.932;10.980;2022-10-16T10:25:52;17.40;99.90
29211;DHT22;16250;49.932;10.980;2022-10-16T10:31:59;17.70;99.90
29211;DHT22;16250;49.932;10.980;2022-10-16T10:36:41;17.70;99.90
29211;DHT22;16250;49.932;10.980;2022-10-16T10:39:23;17.80;99.90
29211;DHT22;16250;49.932;10.980;2022-10-16T10:42:47;18.00;99.90
29211;DHT22;16250;49.932;10.980;2022-10-16T10:52:41;18.10;99.90
29211;DHT22;16250;49.932;10.980;2022-10-16T10:58:23;18.10;99.90
29211;DHT22;16250;49.932;10.980;2022-10-16T11:03:50;18.00;99.90
29211;DHT22;16250;49.932;10.980;2022-10-16T11:06:43;18.10;99.90
29211;DHT22;16250;49.932;10.980;2022-10-16T11:09:20;18.10;99.90
29211;DHT22;16250;49.932;10.980;2022-10-16T11:11:55;18.30;99.90
29211;DHT22;16250;49.932;10.980;2022-10-16T11:14:26;18.30;99.90
29211;DHT22;16250;49.932;10.980;2022-10-16T11:22:32;18.60;99.90
29211;DHT22;16250;49.932;10.980;2022-10-16T11:25:20;18.50;99.90
29211;DHT22;16250;49.932;10.980;2022-10-16T11:30:27;18.80;99.90
29211;DHT22;16250;49.932;10.980;2022-10-16T11:40:50;18.00;99.90
29211;DHT22;16250;49.932;10.980;2022-10-16T11:43:26;17.70;99.90
29211;DHT22;16250;49.932;10.980;2022-10-16T11:45:55;17.40;99.90
29211;DHT22;16250;49.932;10.980;2022-10-16T11:51:14;17.20;99.90
29211;DHT22;16250;49.932;10.980;2022-10-16T11:54:04;17.10;99.90
29211;DHT22;16250;49.932;10.980;2022-10-16T11:56:37;17.10;99.90
29211;DHT22;16250;49.932;10.980;2022-10-16T12:01:56;16.90;99.90
29211;DHT22;16250;49.932;10.980;2022-10-16T12:04:45;17.10;99.90
29211;DHT22;16250;49.932;10.980;2022-10-16T12:07:15;17.60;99.90
29211;DHT22;16250;49.932;10.980;2022-10-16T12:09:43;17.70;99.90
29211;DHT22;16250;49.932;10.980;2022-10-16T12:12:26;17.80;99.90
29211;DHT22;16250;49.932;10.980;2022-10-16T12:15:47;18.00;99.90
29211;DHT22;16250;49.932;10.980;2022-10-16T12:17:49;18.70;99.90
29211;DHT22;16250;49.932;10.980;2022-10-16T12:20:19;19.20;99.90
29211;DHT22;16250;49.932;10.980;2022-10-16T12:22:56;19.30;99.90
29211;DHT22;16250;49.932;10.980;2022-10-16T12:25:36;19.40;99.90
29211;DHT22;16250;49.932;10.980;2022-10-16T12:28:17;19.40;99.90
29211;DHT22;16250;49.932;10.980;2022-10-16T12:30:59;19.20;99.90
29211;DHT22;16250;49.932;10.980;2022-10-16T12:33:30;18.90;99.90
29211;DHT22;16250;49.932;10.980;2022-10-16T12:35:59;18.90;99.90
29211;DHT22;16250;49.932;10.980;2022-10-16T12:38:36;18.60;99.90
29211;DHT22;16250;49.932;10.980;2022-10-16T12:41:08;18.70;99.90
29211;DHT22;16250;49.932;10.980;2022-10-16T12:43:43;18.30;99.90
29211;DHT22;16250;49.932;10.980;2022-10-16T12:48:34;19.50;99.90
29211;DHT22;16250;49.932;10.980;2022-10-16T12:51:34;19.70;99.90
29211;DHT22;16250;49.932;10.980;2022-10-16T12:53:59;20.70;99.90
29211;DHT22;16250;49.932;10.980;2022-10-16T13:05:02;22.80;99.90
29211;DHT22;16250;49.932;10.980;2022-10-16T13:10:54;22.50;99.90
29211;DHT22;16250;49.932;10.980;2022-10-16T13:15:51;22.90;99.90
29211;DHT22;16250;49.932;10.980;2022-10-16T13:18:28;22.80;99.90
29211;DHT22;16250;49.932;10.980;2022-10-16T13:23:36;22.80;99.90
29211;DHT22;16250;49.932;10.980;2022-10-16T13:28:40;23.20;99.90
29211;DHT22;16250;49.932;10.980;2022-10-16T13:31:15;22.60;99.90
29211;DHT22;16250;49.932;10.980;2022-10-16T13:33:47;22.60;99.90
29211;DHT22;16250;49.932;10.980;2022-10-16T13:36:22;21.80;99.90
29211;DHT22;16250;49.932;10.980;2022-10-16T13:38:47;23.50;99.90
29211;DHT22;16250;49.932;10.980;2022-10-16T13:41:16;23.80;99.90
29211;DHT22;16250;49.932;10.980;2022-10-16T13:43:45;24.70;99.90
29211;DHT22;16250;49.932;10.980;2022-10-16T13:46:16;25.50;99.90
29211;DHT22;16250;49.932;10.980;2022-10-16T13:48:42;25.30;99.90
29211;DHT22;16250;49.932;10.980;2022-10-16T13:51:14;24.70;99.90
29211;DHT22;16250;49.932;10.980;2022-10-16T13:53:41;24.70;99.90
29211;DHT22;16250;49.932;10.980;2022-10-16T13:56:11;24.50;99.90
29211;DHT22;16250;49.932;10.980;2022-10-16T13:58:37;23.90;99.90
29211;DHT22;16250;49.932;10.980;2022-10-16T14:01:05;23.20;99.90
29211;DHT22;16250;49.932;10.980;2022-10-16T14:03:32;22.40;99.90
29211;DHT22;16250;49.932;10.980;2022-10-16T14:06:03;21.30;99.90
29211;DHT22;16250;49.932;10.980;2022-10-16T14:08:31;21.00;99.90
29211;DHT22;16250;49.932;10.980;2022-10-16T14:10:59;21.00;99.90
29211;DHT22;16250;49.932;10.980;2022-10-16T14:13:36;20.70;99.90
29211;DHT22;16250;49.932;10.980;2022-10-16T14:16:07;20.90;99.90
29211;DHT22;16250;49.932;10.980;2022-10-16T14:18:34;20.50;99.90
29211;DHT22;16250;49.932;10.980;2022-10-16T14:21:04;20.30;99.90
29211;DHT22;16250;49.932;10.980;2022-10-16T14:23:39;20.40;99.90
29211;DHT22;16250;49.932;10.980;2022-10-16T14:26:12;20.40;99.90
29211;DHT22;16250;49.932;10.980;2022-10-16T14:28:41;20.30;99.90
29211;DHT22;16250;49.932;10.980;2022-10-16T14:33:53;20.40;99.90
29211;DHT22;16250;49.932;10.980;2022-10-16T14:36:18;20.10;99.90
29211;DHT22;16250;49.932;10.980;2022-10-16T14:38:57;20.30;99.90
29211;DHT22;16250;49.932;10.980;2022-10-16T14:41:23;20.30;99.90
29211;DHT22;16250;49.932;10.980;2022-10-16T14:43:55;20.20;99.90
29211;DHT22;16250;49.932;10.980;2022-10-16T14:46:36;19.90;99.90
29211;DHT22;16250;49.932;10.980;2022-10-16T14:49:16;19.70;99.90
29211;DHT22;16250;49.932;10.980;2022-10-16T14:51:43;19.80;99.90
29211;DHT22;16250;49.932;10.980;2022-10-16T14:54:11;19.70;99.90
29211;DHT22;16250;49.932;10.980;2022-10-16T14:59:33;19.70;99.90
29211;DHT22;16250;49.932;10.980;2022-10-16T15:02:02;19.80;99.90
29211;DHT22;16250;49.932;10.980;2022-10-16T15:04:34;19.70;99.90
29211;DHT22;16250;49.932;10.980;2022-10-16T15:07:00;19.70;99.90
29211;DHT22;16250;49.932;10.980;2022-10-16T15:09:25;19.50;99.90
29211;DHT22;16250;49.932;10.980;2022-10-16T15:11:51;19.20;99.90
29211;DHT22;16250;49.932;10.980;2022-10-16T15:14:16;19.10;99.90
29211;DHT22;16250;49.932;10.980;2022-10-16T15:16:42;19.30;99.90
29211;DHT22;16250;49.932;10.980;2022-10-16T15:19:07;19.40;99.90
29211;DHT22;16250;49.932;10.980;2022-10-16T15:21:33;19.40;99.90
29211;DHT22;16250;49.932;10.980;2022-10-16T15:24:00;19.40;99.90
29211;DHT22;16250;49.932;10.980;2022-10-16T15:26:27;19.60;99.90
29211;DHT22;16250;49.932;10.980;2022-10-16T15:28:53;19.30;99.90
29211;DHT22;16250;49.932;10.980;2022-10-16T15:31:19;19.30;99.90
29211;DHT22;16250;49.932;10.980;2022-10-16T15:33:45;19.20;99.90
29211;DHT22;16250;49.932;10.980;2022-10-16T15:36:16;19.40;99.90
29211;DHT22;16250;49.932;10.980;2022-10-16T15:38:42;19.40;99.90
29211;DHT22;16250;49.932;10.980;2022-10-16T15:41:07;19.20;99.90
29211;DHT22;16250;49.932;10.980;2022-10-16T15:43:33;19.30;99.90
29211;DHT22;16250;49.932;10.980;2022-10-16T15:46:08;19.10;99.90
29211;DHT22;16250;49.932;10.980;2022-10-16T15:48:35;19.00;99.90
29211;DHT22;16250;49.932;10.980;2022-10-16T15:51:00;18.90;99.90
29211;DHT22;16250;49.932;10.980;2022-10-16T15:53:29;18.90;99.90
29211;DHT22;16250;49.932;10.980;2022-10-16T15:55:55;18.70;99.90
29211;DHT22;16250;49.932;10.980;2022-10-16T15:58:21;18.60;99.90
29211;DHT22;16250;49.932;10.980;2022-10-16T16:00:54;18.70;99.90
29211;DHT22;16250;49.932;10.980;2022-10-16T16:03:20;18.60;99.90
29211;DHT22;16250;49.932;10.980;2022-10-16T16:05:45;18.40;99.90
29211;DHT22;16250;49.932;10.980;2022-10-16T16:08:11;18.50;99.90
29211;DHT22;16250;49.932;10.980;2022-10-16T16:10:36;18.20;99.90
29211;DHT22;16250;49.932;10.980;2022-10-16T16:13:02;18.00;99.90
29211;DHT22;16250;49.932;10.980;2022-10-16T16:15:28;18.10;99.90
29211;DHT22;16250;49.932;10.980;2022-10-16T16:17:55;18.10;99.90
29211;DHT22;16250;49.932;10.980;2022-10-16T16:20:21;18.30;99.90
29211;DHT22;16250;49.932;10.980;2022-10-16T16:22:48;18.10;99.90
29211;DHT22;16250;49.932;10.980;2022-10-16T16:25:14;17.70;99.90
29211;DHT22;16250;49.932;10.980;2022-10-16T16:27:40;17.70;99.90
29211;DHT22;16250;49.932;10.980;2022-10-16T16:30:06;17.80;99.90
29211;DHT22;16250;49.932;10.980;2022-10-16T16:32:33;17.80;99.90
29211;DHT22;16250;49.932;10.980;2022-10-16T16:34:59;17.70;99.90
29211;DHT22;16250;49.932;10.980;2022-10-16T16:37:25;17.80;99.90
29211;DHT22;16250;49.932;10.980;2022-10-16T16:39:51;17.70;99.90
29211;DHT22;16250;49.932;10.980;2022-10-16T16:42:16;17.70;99.90
29211;DHT22;16250;49.932;10.980;2022-10-16T16:44:42;17.60;99.90
29211;DHT22;16250;49.932;10.980;2022-10-16T16:47:08;17.60;99.90
29211;DHT22;16250;49.932;10.980;2022-10-16T16:49:34;17.60;99.90
29211;DHT22;16250;49.932;10.980;2022-10-16T16:52:00;17.60;99.90
29211;DHT22;16250;49.932;10.980;2022-10-16T16:54:25;17.70;99.90
29211;DHT22;16250;49.932;10.980;2022-10-16T16:56:51;17.70;99.90
29211;DHT22;16250;49.932;10.980;2022-10-16T16:59:19;17.70;99.90
29211;DHT22;16250;49.932;10.980;2022-10-16T17:01:45;17.90;99.90